sensor_id;sensor_type;location;lat;lon;timestamp;P1;durP1;ratioP1;P2;durP2;ratioP2
38111;SDS011;64011;56.312;44.048;2023-05-07T00:01:28;8.57;;;3.08;;
38111;SDS011;64011;56.312;44.048;2023-05-07T00:03:30;10.90;;;3.30;;
38111;SDS011;64011;56.312;44.048;2023-05-07T00:05:31;7.97;;;2.92;;
38111;SDS011;64011;56.312;44.048;2023-05-07T00:07:32;7.78;;;2.90;;
38111;SDS011;64011;56.312;44.048;2023-05-07T00:09:33;10.30;;;2.97;;
38111;SDS011;64011;56.312;44.048;2023-05-07T00:11:34;8.02;;;2.90;;
38111;SDS011;64011;56.312;44.048;2023-05-07T00:13:36;10.75;;;3.10;;
38111;SDS011;64011;56.312;44.048;2023-05-07T00:15:37;12.18;;;3.30;;
38111;SDS011;64011;56.312;44.048;2023-05-07T00:17:38;8.57;;;2.90;;
38111;SDS011;64011;56.312;44.048;2023-05-07T00:19:40;9.25;;;3.20;;
38111;SDS011;64011;56.312;44.048;2023-05-07T00:21:41;8.18;;;2.85;;
38111;SDS011;64011;56.312;44.048;2023-05-07T00:23:41;9.70;;;2.85;;
38111;SDS011;64011;56.312;44.048;2023-05-07T00:25:42;9.48;;;3.10;;
38111;SDS011;64011;56.312;44.048;2023-05-07T00:27:43;10.23;;;3.15;;
38111;SDS011;64011;56.312;44.048;2023-05-07T00:29:44;10.88;;;3.28;;
38111;SDS011;64011;56.312;44.048;2023-05-07T00:31:45;8.20;;;2.92;;
38111;SDS011;64011;56.312;44.048;2023-05-07T00:33:46;8.93;;;2.95;;
38111;SDS011;64011;56.312;44.048;2023-05-07T00:35:48;8.65;;;2.58;;
38111;SDS011;64011;56.312;44.048;2023-05-07T00:37:49;8.10;;;2.70;;
38111;SDS011;64011;56.312;44.048;2023-05-07T00:39:50;12.75;;;2.90;;
38111;SDS011;64011;56.312;44.048;2023-05-07T00:41:50;9.95;;;2.55;;
38111;SDS011;64011;56.312;44.048;2023-05-07T00:43:51;9.45;;;3.35;;
38111;SDS011;64011;56.312;44.048;2023-05-07T00:45:52;8.75;;;3.13;;
38111;SDS011;64011;56.312;44.048;2023-05-07T00:47:53;8.07;;;2.90;;
38111;SDS011;64011;56.312;44.048;2023-05-07T00:49:54;9.30;;;3.10;;
38111;SDS011;64011;56.312;44.048;2023-05-07T00:51:57;9.05;;;2.80;;
38111;SDS011;64011;56.312;44.048;2023-05-07T00:53:59;9.23;;;3.08;;
38111;SDS011;64011;56.312;44.048;2023-05-07T00:56:01;7.65;;;2.85;;
38111;SDS011;64011;56.312;44.048;2023-05-07T00:58:02;11.93;;;2.97;;
38111;SDS011;64011;56.312;44.048;2023-05-07T01:00:03;10.00;;;2.95;;
38111;SDS011;64011;56.312;44.048;2023-05-07T01:02:07;10.95;;;3.13;;
38111;SDS011;64011;56.312;44.048;2023-05-07T01:04:07;10.23;;;3.10;;
38111;SDS011;64011;56.312;44.048;2023-05-07T01:06:08;10.75;;;3.17;;
38111;SDS011;64011;56.312;44.048;2023-05-07T01:08:12;8.57;;;2.85;;
38111;SDS011;64011;56.312;44.048;2023-05-07T01:10:13;11.05;;;3.42;;
38111;SDS011;64011;56.312;44.048;2023-05-07T01:12:14;8.30;;;3.00;;
38111;SDS011;64011;56.312;44.048;2023-05-07T01:14:16;8.35;;;2.83;;
38111;SDS011;64011;56.312;44.048;2023-05-07T01:16:17;9.10;;;2.97;;
38111;SDS011;64011;56.312;44.048;2023-05-07T01:18:18;9.85;;;3.30;;
38111;SDS011;64011;56.312;44.048;2023-05-07T01:20:19;10.70;;;3.15;;
38111;SDS011;64011;56.312;44.048;2023-05-07T01:22:27;9.70;;;3.30;;
38111;SDS011;64011;56.312;44.048;2023-05-07T01:24:30;10.77;;;3.40;;
38111;SDS011;64011;56.312;44.048;2023-05-07T01:26:32;10.15;;;3.08;;
38111;SDS011;64011;56.312;44.048;2023-05-07T01:28:33;9.93;;;2.90;;
38111;SDS011;64011;56.312;44.048;2023-05-07T01:30:33;10.98;;;3.75;;
38111;SDS011;64011;56.312;44.048;2023-05-07T01:32:37;11.00;;;2.88;;
38111;SDS011;64011;56.312;44.048;2023-05-07T01:34:41;16.50;;;4.43;;
38111;SDS011;64011;56.312;44.048;2023-05-07T01:36:43;16.10;;;3.25;;
38111;SDS011;64011;56.312;44.048;2023-05-07T01:38:46;12.25;;;3.00;;
38111;SDS011;64011;56.312;44.048;2023-05-07T01:40:47;9.48;;;2.90;;
38111;SDS011;64011;56.312;44.048;2023-05-07T01:42:48;10.82;;;3.13;;
38111;SDS011;64011;56.312;44.048;2023-05-07T01:44:49;12.63;;;3.22;;
38111;SDS011;64011;56.312;44.048;2023-05-07T01:46:50;18.13;;;3.58;;
38111;SDS011;64011;56.312;44.048;2023-05-07T01:48:51;11.35;;;3.08;;
38111;SDS011;64011;56.312;44.048;2023-05-07T01:50:52;9.85;;;2.90;;
38111;SDS011;64011;56.312;44.048;2023-05-07T01:52:53;9.02;;;2.85;;
38111;SDS011;64011;56.312;44.048;2023-05-07T01:54:55;10.18;;;2.90;;
38111;SDS011;64011;56.312;44.048;2023-05-07T01:56:56;9.32;;;2.80;;
38111;SDS011;64011;56.312;44.048;2023-05-07T01:58:57;9.95;;;3.47;;
38111;SDS011;64011;56.312;44.048;2023-05-07T02:00:58;8.65;;;2.90;;
38111;SDS011;64011;56.312;44.048;2023-05-07T02:02:59;15.15;;;3.20;;
38111;SDS011;64011;56.312;44.048;2023-05-07T02:05:00;10.80;;;3.10;;
38111;SDS011;64011;56.312;44.048;2023-05-07T02:07:04;8.18;;;2.80;;
38111;SDS011;64011;56.312;44.048;2023-05-07T02:09:05;9.10;;;2.70;;
38111;SDS011;64011;56.312;44.048;2023-05-07T02:11:07;9.77;;;3.17;;
38111;SDS011;64011;56.312;44.048;2023-05-07T02:13:09;7.85;;;2.85;;
38111;SDS011;64011;56.312;44.048;2023-05-07T02:15:10;10.27;;;3.08;;
38111;SDS011;64011;56.312;44.048;2023-05-07T02:17:11;12.40;;;2.97;;
38111;SDS011;64011;56.312;44.048;2023-05-07T02:19:12;9.63;;;3.13;;
38111;SDS011;64011;56.312;44.048;2023-05-07T02:21:13;8.18;;;2.90;;
38111;SDS011;64011;56.312;44.048;2023-05-07T02:23:14;7.88;;;2.95;;
38111;SDS011;64011;56.312;44.048;2023-05-07T02:25:15;10.50;;;3.03;;
38111;SDS011;64011;56.312;44.048;2023-05-07T02:27:17;7.65;;;2.75;;
38111;SDS011;64011;56.312;44.048;2023-05-07T02:29:18;7.28;;;2.72;;
38111;SDS011;64011;56.312;44.048;2023-05-07T02:31:19;8.88;;;2.92;;
38111;SDS011;64011;56.312;44.048;2023-05-07T02:33:20;6.30;;;2.45;;
38111;SDS011;64011;56.312;44.048;2023-05-07T02:35:21;9.95;;;2.55;;
38111;SDS011;64011;56.312;44.048;2023-05-07T02:37:21;8.20;;;2.53;;
38111;SDS011;64011;56.312;44.048;2023-05-07T02:39:22;8.27;;;2.60;;
38111;SDS011;64011;56.312;44.048;2023-05-07T02:41:23;10.38;;;2.63;;
38111;SDS011;64011;56.312;44.048;2023-05-07T02:43:26;9.13;;;2.67;;
38111;SDS011;64011;56.312;44.048;2023-05-07T02:45:27;6.57;;;2.22;;
38111;SDS011;64011;56.312;44.048;2023-05-07T02:47:27;7.72;;;2.50;;
38111;SDS011;64011;56.312;44.048;2023-05-07T02:49:28;6.90;;;2.40;;
38111;SDS011;64011;56.312;44.048;2023-05-07T02:51:29;9.00;;;2.28;;
38111;SDS011;64011;56.312;44.048;2023-05-07T02:53:30;7.43;;;2.35;;
38111;SDS011;64011;56.312;44.048;2023-05-07T02:55:32;7.05;;;2.08;;
38111;SDS011;64011;56.312;44.048;2023-05-07T02:57:33;6.88;;;2.33;;
38111;SDS011;64011;56.312;44.048;2023-05-07T02:59:36;7.65;;;2.40;;
38111;SDS011;64011;56.312;44.048;2023-05-07T03:01:38;5.90;;;2.13;;
38111;SDS011;64011;56.312;44.048;2023-05-07T03:03:39;7.22;;;2.55;;
38111;SDS011;64011;56.312;44.048;2023-05-07T03:05:40;8.15;;;2.50;;
38111;SDS011;64011;56.312;44.048;2023-05-07T03:07:41;8.60;;;2.42;;
38111;SDS011;64011;56.312;44.048;2023-05-07T03:09:42;8.25;;;2.72;;
38111;SDS011;64011;56.312;44.048;2023-05-07T03:11:43;7.78;;;2.20;;
38111;SDS011;64011;56.312;44.048;2023-05-07T03:13:44;5.70;;;2.00;;
38111;SDS011;64011;56.312;44.048;2023-05-07T03:15:46;5.97;;;2.13;;
38111;SDS011;64011;56.312;44.048;2023-05-07T03:17:47;6.25;;;2.40;;
38111;SDS011;64011;56.312;44.048;2023-05-07T03:19:48;7.18;;;2.20;;
38111;SDS011;64011;56.312;44.048;2023-05-07T03:21:48;9.07;;;2.50;;
38111;SDS011;64011;56.312;44.048;2023-05-07T03:23:49;6.57;;;2.38;;
38111;SDS011;64011;56.312;44.048;2023-05-07T03:25:50;6.95;;;2.08;;
38111;SDS011;64011;56.312;44.048;2023-05-07T03:27:51;8.85;;;2.50;;
38111;SDS011;64011;56.312;44.048;2023-05-07T03:29:52;5.18;;;2.20;;
38111;SDS011;64011;56.312;44.048;2023-05-07T03:31:54;6.90;;;2.50;;
38111;SDS011;64011;56.312;44.048;2023-05-07T03:33:56;7.60;;;2.47;;
38111;SDS011;64011;56.312;44.048;2023-05-07T03:35:57;10.18;;;2.45;;
38111;SDS011;64011;56.312;44.048;2023-05-07T03:37:58;7.18;;;2.53;;
38111;SDS011;64011;56.312;44.048;2023-05-07T03:39:59;7.63;;;2.40;;
38111;SDS011;64011;56.312;44.048;2023-05-07T03:42:00;7.20;;;2.55;;
38111;SDS011;64011;56.312;44.048;2023-05-07T03:44:01;7.88;;;2.38;;
38111;SDS011;64011;56.312;44.048;2023-05-07T03:46:02;7.95;;;2.42;;
38111;SDS011;64011;56.312;44.048;2023-05-07T03:48:06;11.98;;;2.50;;
38111;SDS011;64011;56.312;44.048;2023-05-07T03:50:07;5.35;;;2.22;;
38111;SDS011;64011;56.312;44.048;2023-05-07T03:52:08;7.90;;;2.38;;
38111;SDS011;64011;56.312;44.048;2023-05-07T03:54:09;6.60;;;2.35;;
38111;SDS011;64011;56.312;44.048;2023-05-07T03:56:10;9.65;;;2.80;;
38111;SDS011;64011;56.312;44.048;2023-05-07T03:58:11;7.28;;;2.38;;
38111;SDS011;64011;56.312;44.048;2023-05-07T04:00:13;7.93;;;2.50;;
38111;SDS011;64011;56.312;44.048;2023-05-07T04:02:14;7.55;;;2.60;;
38111;SDS011;64011;56.312;44.048;2023-05-07T04:04:16;9.18;;;2.75;;
38111;SDS011;64011;56.312;44.048;2023-05-07T04:06:17;7.53;;;2.33;;
38111;SDS011;64011;56.312;44.048;2023-05-07T04:08:18;9.27;;;2.70;;
38111;SDS011;64011;56.312;44.048;2023-05-07T04:10:19;7.53;;;2.40;;
38111;SDS011;64011;56.312;44.048;2023-05-07T04:12:21;8.45;;;2.40;;
38111;SDS011;64011;56.312;44.048;2023-05-07T04:14:22;7.72;;;2.58;;
38111;SDS011;64011;56.312;44.048;2023-05-07T04:16:23;8.20;;;2.40;;
38111;SDS011;64011;56.312;44.048;2023-05-07T04:18:24;11.07;;;2.47;;
38111;SDS011;64011;56.312;44.048;2023-05-07T04:20:26;9.07;;;2.42;;
38111;SDS011;64011;56.312;44.048;2023-05-07T04:22:27;7.50;;;2.30;;
38111;SDS011;64011;56.312;44.048;2023-05-07T04:24:30;8.15;;;2.17;;
38111;SDS011;64011;56.312;44.048;2023-05-07T04:26:32;7.97;;;2.50;;
38111;SDS011;64011;56.312;44.048;2023-05-07T04:28:33;10.75;;;2.35;;
38111;SDS011;64011;56.312;44.048;2023-05-07T04:30:34;9.95;;;2.65;;
38111;SDS011;64011;56.312;44.048;2023-05-07T04:32:35;9.75;;;2.75;;
38111;SDS011;64011;56.312;44.048;2023-05-07T04:34:36;5.90;;;2.30;;
38111;SDS011;64011;56.312;44.048;2023-05-07T04:36:38;8.95;;;2.40;;
38111;SDS011;64011;56.312;44.048;2023-05-07T04:38:39;9.20;;;2.50;;
38111;SDS011;64011;56.312;44.048;2023-05-07T04:40:40;8.20;;;2.42;;
38111;SDS011;64011;56.312;44.048;2023-05-07T04:42:41;11.98;;;2.65;;
38111;SDS011;64011;56.312;44.048;2023-05-07T04:44:42;8.98;;;2.40;;
38111;SDS011;64011;56.312;44.048;2023-05-07T04:46:43;9.23;;;2.30;;
38111;SDS011;64011;56.312;44.048;2023-05-07T04:48:44;10.85;;;2.60;;
38111;SDS011;64011;56.312;44.048;2023-05-07T04:50:47;8.40;;;2.22;;
38111;SDS011;64011;56.312;44.048;2023-05-07T04:52:49;12.00;;;2.20;;
38111;SDS011;64011;56.312;44.048;2023-05-07T04:54:50;8.68;;;2.20;;
38111;SDS011;64011;56.312;44.048;2023-05-07T04:56:51;5.85;;;2.05;;
38111;SDS011;64011;56.312;44.048;2023-05-07T04:58:52;12.80;;;2.53;;
38111;SDS011;64011;56.312;44.048;2023-05-07T05:00:52;8.20;;;2.28;;
38111;SDS011;64011;56.312;44.048;2023-05-07T05:02:55;4.63;;;1.92;;
38111;SDS011;64011;56.312;44.048;2023-05-07T05:04:56;6.60;;;2.20;;
38111;SDS011;64011;56.312;44.048;2023-05-07T05:06:57;6.53;;;2.38;;
38111;SDS011;64011;56.312;44.048;2023-05-07T05:09:00;5.78;;;2.30;;
38111;SDS011;64011;56.312;44.048;2023-05-07T05:11:00;19.50;;;3.28;;
38111;SDS011;64011;56.312;44.048;2023-05-07T05:13:01;6.97;;;2.03;;
38111;SDS011;64011;56.312;44.048;2023-05-07T05:15:02;5.75;;;2.00;;
38111;SDS011;64011;56.312;44.048;2023-05-07T05:17:05;8.70;;;2.10;;
38111;SDS011;64011;56.312;44.048;2023-05-07T05:19:06;7.47;;;2.13;;
38111;SDS011;64011;56.312;44.048;2023-05-07T05:21:07;10.50;;;2.40;;
38111;SDS011;64011;56.312;44.048;2023-05-07T05:23:08;9.52;;;2.50;;
38111;SDS011;64011;56.312;44.048;2023-05-07T05:25:12;6.85;;;2.17;;
38111;SDS011;64011;56.312;44.048;2023-05-07T05:27:13;8.18;;;1.90;;
38111;SDS011;64011;56.312;44.048;2023-05-07T05:29:14;5.45;;;1.90;;
38111;SDS011;64011;56.312;44.048;2023-05-07T05:31:15;5.90;;;1.88;;
38111;SDS011;64011;56.312;44.048;2023-05-07T05:33:16;8.48;;;2.20;;
38111;SDS011;64011;56.312;44.048;2023-05-07T05:35:17;7.70;;;2.15;;
38111;SDS011;64011;56.312;44.048;2023-05-07T05:37:18;6.47;;;1.85;;
38111;SDS011;64011;56.312;44.048;2023-05-07T05:39:19;9.70;;;2.00;;
38111;SDS011;64011;56.312;44.048;2023-05-07T05:41:22;5.15;;;2.10;;
38111;SDS011;64011;56.312;44.048;2023-05-07T05:43:23;10.55;;;2.17;;
38111;SDS011;64011;56.312;44.048;2023-05-07T05:45:23;5.78;;;1.90;;
38111;SDS011;64011;56.312;44.048;2023-05-07T05:47:24;6.22;;;1.75;;
38111;SDS011;64011;56.312;44.048;2023-05-07T05:49:25;6.47;;;1.70;;
38111;SDS011;64011;56.312;44.048;2023-05-07T05:51:26;6.38;;;1.75;;
38111;SDS011;64011;56.312;44.048;2023-05-07T05:53:27;6.40;;;2.00;;
38111;SDS011;64011;56.312;44.048;2023-05-07T05:55:28;8.68;;;2.13;;
38111;SDS011;64011;56.312;44.048;2023-05-07T05:57:32;7.25;;;2.40;;
38111;SDS011;64011;56.312;44.048;2023-05-07T05:59:33;6.47;;;1.90;;
38111;SDS011;64011;56.312;44.048;2023-05-07T06:01:34;9.82;;;2.63;;
38111;SDS011;64011;56.312;44.048;2023-05-07T06:03:34;5.97;;;2.00;;
38111;SDS011;64011;56.312;44.048;2023-05-07T06:05:35;4.70;;;1.80;;
38111;SDS011;64011;56.312;44.048;2023-05-07T06:07:36;6.38;;;2.40;;
38111;SDS011;64011;56.312;44.048;2023-05-07T06:09:37;4.10;;;1.38;;
38111;SDS011;64011;56.312;44.048;2023-05-07T06:11:38;6.60;;;1.90;;
38111;SDS011;64011;56.312;44.048;2023-05-07T06:13:40;6.28;;;2.00;;
38111;SDS011;64011;56.312;44.048;2023-05-07T06:15:41;5.72;;;1.80;;
38111;SDS011;64011;56.312;44.048;2023-05-07T06:17:42;7.25;;;1.90;;
38111;SDS011;64011;56.312;44.048;2023-05-07T06:19:43;7.10;;;2.00;;
38111;SDS011;64011;56.312;44.048;2023-05-07T06:21:44;7.30;;;1.92;;
38111;SDS011;64011;56.312;44.048;2023-05-07T06:23:45;7.22;;;2.35;;
38111;SDS011;64011;56.312;44.048;2023-05-07T06:25:48;6.53;;;1.80;;
38111;SDS011;64011;56.312;44.048;2023-05-07T06:27:51;5.38;;;1.92;;
38111;SDS011;64011;56.312;44.048;2023-05-07T06:29:53;7.57;;;1.90;;
38111;SDS011;64011;56.312;44.048;2023-05-07T06:31:54;4.38;;;1.60;;
38111;SDS011;64011;56.312;44.048;2023-05-07T06:33:55;6.60;;;2.10;;
38111;SDS011;64011;56.312;44.048;2023-05-07T06:35:55;7.13;;;1.90;;
38111;SDS011;64011;56.312;44.048;2023-05-07T06:37:56;5.97;;;1.73;;
38111;SDS011;64011;56.312;44.048;2023-05-07T06:39:57;4.70;;;1.77;;
38111;SDS011;64011;56.312;44.048;2023-05-07T06:41:59;8.85;;;1.88;;
38111;SDS011;64011;56.312;44.048;2023-05-07T06:44:00;4.55;;;1.58;;
38111;SDS011;64011;56.312;44.048;2023-05-07T06:46:03;7.03;;;1.70;;
38111;SDS011;64011;56.312;44.048;2023-05-07T06:48:04;4.25;;;1.65;;
38111;SDS011;64011;56.312;44.048;2023-05-07T06:50:05;5.93;;;1.55;;
38111;SDS011;64011;56.312;44.048;2023-05-07T06:52:07;6.10;;;1.67;;
38111;SDS011;64011;56.312;44.048;2023-05-07T06:54:08;6.03;;;1.70;;
38111;SDS011;64011;56.312;44.048;2023-05-07T06:56:10;4.80;;;1.80;;
38111;SDS011;64011;56.312;44.048;2023-05-07T06:58:11;7.38;;;1.63;;
38111;SDS011;64011;56.312;44.048;2023-05-07T07:00:12;6.68;;;1.48;;
38111;SDS011;64011;56.312;44.048;2023-05-07T07:02:15;3.47;;;1.50;;
38111;SDS011;64011;56.312;44.048;2023-05-07T07:04:17;6.10;;;1.65;;
38111;SDS011;64011;56.312;44.048;2023-05-07T07:06:18;3.28;;;1.52;;
38111;SDS011;64011;56.312;44.048;2023-05-07T07:08:18;2.90;;;1.10;;
38111;SDS011;64011;56.312;44.048;2023-05-07T07:10:19;5.82;;;1.60;;
38111;SDS011;64011;56.312;44.048;2023-05-07T07:12:21;3.95;;;1.55;;
38111;SDS011;64011;56.312;44.048;2023-05-07T07:14:22;3.50;;;1.20;;
38111;SDS011;64011;56.312;44.048;2023-05-07T07:16:23;4.57;;;1.70;;
38111;SDS011;64011;56.312;44.048;2023-05-07T07:18:25;4.20;;;1.45;;
38111;SDS011;64011;56.312;44.048;2023-05-07T07:20:26;5.30;;;1.50;;
38111;SDS011;64011;56.312;44.048;2023-05-07T07:22:27;5.53;;;1.52;;
38111;SDS011;64011;56.312;44.048;2023-05-07T07:24:27;4.43;;;1.52;;
38111;SDS011;64011;56.312;44.048;2023-05-07T07:26:28;6.65;;;1.50;;
38111;SDS011;64011;56.312;44.048;2023-05-07T07:28:29;5.50;;;1.40;;
38111;SDS011;64011;56.312;44.048;2023-05-07T07:30:30;5.97;;;1.92;;
38111;SDS011;64011;56.312;44.048;2023-05-07T07:32:31;4.18;;;1.30;;
38111;SDS011;64011;56.312;44.048;2023-05-07T07:34:33;5.57;;;1.40;;
38111;SDS011;64011;56.312;44.048;2023-05-07T07:36:34;9.90;;;1.60;;
38111;SDS011;64011;56.312;44.048;2023-05-07T07:38:35;3.78;;;1.50;;
38111;SDS011;64011;56.312;44.048;2023-05-07T07:40:35;5.03;;;1.40;;
38111;SDS011;64011;56.312;44.048;2023-05-07T07:42:36;5.78;;;1.63;;
38111;SDS011;64011;56.312;44.048;2023-05-07T07:44:37;6.28;;;1.42;;
38111;SDS011;64011;56.312;44.048;2023-05-07T07:46:38;7.30;;;1.30;;
38111;SDS011;64011;56.312;44.048;2023-05-07T07:48:39;6.03;;;1.38;;
38111;SDS011;64011;56.312;44.048;2023-05-07T07:50:41;5.15;;;1.38;;
38111;SDS011;64011;56.312;44.048;2023-05-07T07:52:42;2.67;;;1.10;;
38111;SDS011;64011;56.312;44.048;2023-05-07T07:54:43;3.22;;;0.90;;
38111;SDS011;64011;56.312;44.048;2023-05-07T07:56:44;1.90;;;1.10;;
38111;SDS011;64011;56.312;44.048;2023-05-07T07:58:45;5.65;;;0.95;;
38111;SDS011;64011;56.312;44.048;2023-05-07T08:00:46;3.30;;;1.00;;
38111;SDS011;64011;56.312;44.048;2023-05-07T08:02:47;4.80;;;1.15;;
38111;SDS011;64011;56.312;44.048;2023-05-07T08:04:48;2.03;;;0.93;;
38111;SDS011;64011;56.312;44.048;2023-05-07T08:06:50;2.20;;;0.90;;
38111;SDS011;64011;56.312;44.048;2023-05-07T08:08:52;4.03;;;1.10;;
38111;SDS011;64011;56.312;44.048;2023-05-07T08:10:53;2.03;;;1.08;;
38111;SDS011;64011;56.312;44.048;2023-05-07T08:12:54;2.38;;;1.05;;
38111;SDS011;64011;56.312;44.048;2023-05-07T08:14:55;2.00;;;1.05;;
38111;SDS011;64011;56.312;44.048;2023-05-07T08:16:56;6.13;;;1.38;;
38111;SDS011;64011;56.312;44.048;2023-05-07T08:18:57;4.75;;;1.02;;
38111;SDS011;64011;56.312;44.048;2023-05-07T08:20:58;4.15;;;1.27;;
38111;SDS011;64011;56.312;44.048;2023-05-07T08:23:00;2.83;;;1.27;;
38111;SDS011;64011;56.312;44.048;2023-05-07T08:25:01;3.03;;;1.10;;
38111;SDS011;64011;56.312;44.048;2023-05-07T08:27:03;5.38;;;1.10;;
38111;SDS011;64011;56.312;44.048;2023-05-07T08:29:04;3.00;;;0.88;;
38111;SDS011;64011;56.312;44.048;2023-05-07T08:31:06;3.53;;;0.98;;
38111;SDS011;64011;56.312;44.048;2023-05-07T08:33:08;4.45;;;1.45;;
38111;SDS011;64011;56.312;44.048;2023-05-07T08:35:09;7.13;;;1.10;;
38111;SDS011;64011;56.312;44.048;2023-05-07T08:37:10;5.25;;;1.30;;
38111;SDS011;64011;56.312;44.048;2023-05-07T08:39:12;5.72;;;1.52;;
38111;SDS011;64011;56.312;44.048;2023-05-07T08:41:13;3.20;;;1.00;;
38111;SDS011;64011;56.312;44.048;2023-05-07T08:43:14;3.22;;;1.15;;
38111;SDS011;64011;56.312;44.048;2023-05-07T08:45:16;3.35;;;1.15;;
38111;SDS011;64011;56.312;44.048;2023-05-07T08:47:19;2.58;;;1.05;;
38111;SDS011;64011;56.312;44.048;2023-05-07T08:49:23;3.13;;;1.17;;
38111;SDS011;64011;56.312;44.048;2023-05-07T08:51:23;4.45;;;1.30;;
38111;SDS011;64011;56.312;44.048;2023-05-07T08:53:24;3.33;;;1.10;;
38111;SDS011;64011;56.312;44.048;2023-05-07T08:55:28;4.90;;;1.20;;
38111;SDS011;64011;56.312;44.048;2023-05-07T08:57:29;3.92;;;1.20;;
38111;SDS011;64011;56.312;44.048;2023-05-07T08:59:30;4.63;;;1.02;;
38111;SDS011;64011;56.312;44.048;2023-05-07T09:01:30;4.80;;;1.20;;
38111;SDS011;64011;56.312;44.048;2023-05-07T09:03:31;6.00;;;1.23;;
38111;SDS011;64011;56.312;44.048;2023-05-07T09:05:32;5.15;;;1.67;;
38111;SDS011;64011;56.312;44.048;2023-05-07T09:07:33;6.10;;;1.70;;
38111;SDS011;64011;56.312;44.048;2023-05-07T09:09:34;4.85;;;1.42;;
38111;SDS011;64011;56.312;44.048;2023-05-07T09:11:37;4.25;;;1.27;;
38111;SDS011;64011;56.312;44.048;2023-05-07T09:13:37;4.70;;;1.65;;
38111;SDS011;64011;56.312;44.048;2023-05-07T09:15:38;5.82;;;1.85;;
38111;SDS011;64011;56.312;44.048;2023-05-07T09:17:39;7.88;;;1.92;;
38111;SDS011;64011;56.312;44.048;2023-05-07T09:19:40;7.93;;;2.33;;
38111;SDS011;64011;56.312;44.048;2023-05-07T09:21:42;5.32;;;1.40;;
38111;SDS011;64011;56.312;44.048;2023-05-07T09:23:43;4.35;;;1.33;;
38111;SDS011;64011;56.312;44.048;2023-05-07T09:25:43;3.95;;;1.20;;
38111;SDS011;64011;56.312;44.048;2023-05-07T09:27:47;5.00;;;1.17;;
38111;SDS011;64011;56.312;44.048;2023-05-07T09:29:48;4.70;;;1.50;;
38111;SDS011;64011;56.312;44.048;2023-05-07T09:31:49;2.90;;;1.20;;
38111;SDS011;64011;56.312;44.048;2023-05-07T09:33:52;3.75;;;1.20;;
38111;SDS011;64011;56.312;44.048;2023-05-07T09:35:53;3.95;;;1.10;;
38111;SDS011;64011;56.312;44.048;2023-05-07T09:37:55;5.60;;;1.45;;
38111;SDS011;64011;56.312;44.048;2023-05-07T09:39:56;5.30;;;1.40;;
38111;SDS011;64011;56.312;44.048;2023-05-07T09:41:57;4.78;;;1.40;;
38111;SDS011;64011;56.312;44.048;2023-05-07T09:43:59;4.25;;;1.52;;
38111;SDS011;64011;56.312;44.048;2023-05-07T09:46:01;5.03;;;1.20;;
38111;SDS011;64011;56.312;44.048;2023-05-07T09:48:04;5.38;;;1.38;;
38111;SDS011;64011;56.312;44.048;2023-05-07T09:50:06;2.95;;;1.33;;
38111;SDS011;64011;56.312;44.048;2023-05-07T09:52:09;3.28;;;1.40;;
38111;SDS011;64011;56.312;44.048;2023-05-07T09:54:10;4.68;;;1.63;;
38111;SDS011;64011;56.312;44.048;2023-05-07T09:56:11;4.00;;;1.30;;
38111;SDS011;64011;56.312;44.048;2023-05-07T09:58:13;3.92;;;1.60;;
38111;SDS011;64011;56.312;44.048;2023-05-07T10:00:16;4.90;;;1.98;;
38111;SDS011;64011;56.312;44.048;2023-05-07T10:02:19;7.65;;;1.60;;
38111;SDS011;64011;56.312;44.048;2023-05-07T10:04:20;5.28;;;1.70;;
38111;SDS011;64011;56.312;44.048;2023-05-07T10:06:21;4.93;;;1.38;;
38111;SDS011;64011;56.312;44.048;2023-05-07T10:08:24;6.43;;;1.73;;
38111;SDS011;64011;56.312;44.048;2023-05-07T10:10:25;5.75;;;2.03;;
38111;SDS011;64011;56.312;44.048;2023-05-07T10:12:27;9.32;;;1.70;;
38111;SDS011;64011;56.312;44.048;2023-05-07T10:14:28;7.60;;;1.50;;
38111;SDS011;64011;56.312;44.048;2023-05-07T10:16:30;4.32;;;1.30;;
38111;SDS011;64011;56.312;44.048;2023-05-07T10:18:32;7.88;;;1.63;;
38111;SDS011;64011;56.312;44.048;2023-05-07T10:20:33;4.65;;;1.50;;
38111;SDS011;64011;56.312;44.048;2023-05-07T10:22:37;5.15;;;1.50;;
38111;SDS011;64011;56.312;44.048;2023-05-07T10:24:40;6.43;;;1.48;;
38111;SDS011;64011;56.312;44.048;2023-05-07T10:26:42;5.90;;;1.67;;
38111;SDS011;64011;56.312;44.048;2023-05-07T10:28:45;6.25;;;1.60;;
38111;SDS011;64011;56.312;44.048;2023-05-07T10:30:50;5.55;;;1.85;;
38111;SDS011;64011;56.312;44.048;2023-05-07T10:32:58;4.90;;;2.00;;
38111;SDS011;64011;56.312;44.048;2023-05-07T10:35:02;8.32;;;2.00;;
38111;SDS011;64011;56.312;44.048;2023-05-07T10:37:05;6.25;;;1.70;;
38111;SDS011;64011;56.312;44.048;2023-05-07T10:39:07;5.43;;;1.60;;
38111;SDS011;64011;56.312;44.048;2023-05-07T10:41:07;4.68;;;1.75;;
38111;SDS011;64011;56.312;44.048;2023-05-07T10:43:09;6.70;;;1.63;;
38111;SDS011;64011;56.312;44.048;2023-05-07T10:45:12;4.97;;;1.65;;
38111;SDS011;64011;56.312;44.048;2023-05-07T10:47:14;3.97;;;1.65;;
38111;SDS011;64011;56.312;44.048;2023-05-07T10:49:17;6.03;;;1.65;;
38111;SDS011;64011;56.312;44.048;2023-05-07T10:51:18;6.78;;;2.00;;
38111;SDS011;64011;56.312;44.048;2023-05-07T10:53:20;3.15;;;1.63;;
38111;SDS011;64011;56.312;44.048;2023-05-07T10:55:22;6.55;;;1.70;;
38111;SDS011;64011;56.312;44.048;2023-05-07T10:57:32;6.38;;;1.50;;
38111;SDS011;64011;56.312;44.048;2023-05-07T10:59:34;6.53;;;1.60;;
38111;SDS011;64011;56.312;44.048;2023-05-07T11:01:49;7.70;;;1.88;;
38111;SDS011;64011;56.312;44.048;2023-05-07T11:06:22;5.60;;;1.80;;
38111;SDS011;64011;56.312;44.048;2023-05-07T11:08:23;8.95;;;1.70;;
38111;SDS011;64011;56.312;44.048;2023-05-07T11:10:26;7.38;;;1.70;;
38111;SDS011;64011;56.312;44.048;2023-05-07T11:12:53;7.03;;;1.98;;
38111;SDS011;64011;56.312;44.048;2023-05-07T11:14:54;5.15;;;1.80;;
38111;SDS011;64011;56.312;44.048;2023-05-07T11:17:01;5.60;;;1.98;;
38111;SDS011;64011;56.312;44.048;2023-05-07T11:19:03;6.38;;;2.10;;
38111;SDS011;64011;56.312;44.048;2023-05-07T11:21:04;6.07;;;2.05;;
38111;SDS011;64011;56.312;44.048;2023-05-07T11:23:07;6.45;;;1.90;;
38111;SDS011;64011;56.312;44.048;2023-05-07T11:25:08;7.88;;;2.03;;
38111;SDS011;64011;56.312;44.048;2023-05-07T11:27:09;4.75;;;1.80;;
38111;SDS011;64011;56.312;44.048;2023-05-07T11:29:11;9.02;;;2.00;;
38111;SDS011;64011;56.312;44.048;2023-05-07T11:31:12;9.05;;;2.70;;
38111;SDS011;64011;56.312;44.048;2023-05-07T11:33:13;5.00;;;1.70;;
38111;SDS011;64011;56.312;44.048;2023-05-07T11:35:17;10.63;;;2.25;;
38111;SDS011;64011;56.312;44.048;2023-05-07T11:37:18;9.45;;;1.92;;
38111;SDS011;64011;56.312;44.048;2023-05-07T11:39:24;10.13;;;2.60;;
38111;SDS011;64011;56.312;44.048;2023-05-07T11:41:34;6.93;;;2.30;;
38111;SDS011;64011;56.312;44.048;2023-05-07T11:43:35;6.35;;;2.30;;
38111;SDS011;64011;56.312;44.048;2023-05-07T11:45:36;7.15;;;2.00;;
38111;SDS011;64011;56.312;44.048;2023-05-07T11:47:37;7.40;;;1.90;;
38111;SDS011;64011;56.312;44.048;2023-05-07T11:49:38;11.68;;;2.10;;
38111;SDS011;64011;56.312;44.048;2023-05-07T11:51:39;5.30;;;1.63;;
38111;SDS011;64011;56.312;44.048;2023-05-07T11:53:40;5.68;;;1.90;;
38111;SDS011;64011;56.312;44.048;2023-05-07T11:55:46;4.45;;;1.60;;
38111;SDS011;64011;56.312;44.048;2023-05-07T11:57:47;6.35;;;1.60;;
38111;SDS011;64011;56.312;44.048;2023-05-07T11:59:52;6.55;;;1.67;;
38111;SDS011;64011;56.312;44.048;2023-05-07T12:01:55;9.48;;;1.85;;
38111;SDS011;64011;56.312;44.048;2023-05-07T12:03:57;4.50;;;2.05;;